createdAt,value
2023-11-07T00:04:47.574Z,11.17
2023-11-07T00:09:50.647Z,11.12
2023-11-07T00:14:52.701Z,11.09
2023-11-07T00:19:56.960Z,11.04
2023-11-07T00:24:58.637Z,10.99
2023-11-07T00:30:01.174Z,10.92
2023-11-07T00:35:03.670Z,10.88
2023-11-07T00:40:07.841Z,10.82
2023-11-07T00:45:10.010Z,10.78
2023-11-07T00:50:11.994Z,10.78
2023-11-07T00:55:14.317Z,10.75
2023-11-07T01:00:16.755Z,10.74
2023-11-07T01:05:19.560Z,10.71
2023-11-07T01:10:21.354Z,10.63
2023-11-07T01:15:23.238Z,10.60
2023-11-07T01:20:25.185Z,10.58
2023-11-07T01:25:28.579Z,10.55
2023-11-07T01:30:30.477Z,10.50
2023-11-07T01:35:32.324Z,10.46
2023-11-07T01:40:34.837Z,10.46
2023-11-07T01:45:36.540Z,10.46
2023-11-07T01:50:38.408Z,10.47
2023-11-07T01:55:41.731Z,10.43
2023-11-07T02:00:45.157Z,10.43
2023-11-07T02:05:46.848Z,10.40
2023-11-07T02:10:48.561Z,10.39
2023-11-07T02:15:50.240Z,10.34
2023-11-07T02:20:53.300Z,10.27
2023-11-07T02:25:55.187Z,10.07
2023-11-07T02:30:58.160Z,10.09
2023-11-07T02:36:01.299Z,10.07
2023-11-07T02:41:03.101Z,10.04
2023-11-07T02:46:05.263Z,9.95
2023-11-07T02:51:07.002Z,9.75
2023-11-07T02:56:09.044Z,9.58
2023-11-07T03:01:10.969Z,9.39
2023-11-07T03:06:12.735Z,9.12
2023-11-07T03:11:16.013Z,8.90
2023-11-07T03:16:18.152Z,8.76
2023-11-07T03:21:23.756Z,8.75
2023-11-07T03:26:25.923Z,8.60
2023-11-07T03:31:27.687Z,8.34
2023-11-07T03:36:29.799Z,7.88
2023-11-07T03:41:31.847Z,7.88
2023-11-07T03:46:33.532Z,7.73
2023-11-07T03:51:35.210Z,7.78
2023-11-07T03:56:37.202Z,7.83
2023-11-07T04:01:39.065Z,8.03
2023-11-07T04:06:40.728Z,8.16
2023-11-07T04:11:43.384Z,8.15
2023-11-07T04:16:45.977Z,8.18
2023-11-07T04:21:47.486Z,8.28
2023-11-07T04:26:55.093Z,8.30
2023-11-07T04:31:56.888Z,8.32
2023-11-07T04:36:59.907Z,8.26
2023-11-07T04:42:02.948Z,8.26
2023-11-07T04:47:06.986Z,8.12
2023-11-07T04:52:08.771Z,7.59
2023-11-07T04:57:11.212Z,7.37
2023-11-07T05:02:13.004Z,7.30
2023-11-07T05:07:15.155Z,7.25
2023-11-07T05:12:16.822Z,7.18
2023-11-07T05:17:18.892Z,7.21
2023-11-07T05:22:21.217Z,7.23
2023-11-07T05:27:22.846Z,7.33
2023-11-07T05:32:24.464Z,7.50
2023-11-07T05:37:26.187Z,7.50
2023-11-07T05:42:27.929Z,7.48
2023-11-07T05:47:29.984Z,7.30
2023-11-07T05:52:33.319Z,7.40
2023-11-07T05:57:36.907Z,7.51
2023-11-07T06:02:39.504Z,7.63
2023-11-07T06:07:41.327Z,7.68
2023-11-07T06:12:43.053Z,7.68
2023-11-07T06:17:44.803Z,7.67
2023-11-07T06:22:46.516Z,7.70
2023-11-07T06:27:49.132Z,7.61
2023-11-07T06:32:51.676Z,7.55
2023-11-07T06:37:53.385Z,7.64
2023-11-07T06:42:55.718Z,7.66
2023-11-07T06:47:57.565Z,7.50
2023-11-07T06:53:00.460Z,7.45
2023-11-07T06:58:02.108Z,7.55
2023-11-07T07:03:03.901Z,7.73
2023-11-07T07:08:09.249Z,7.93
2023-11-07T07:13:11.038Z,8.00
2023-11-07T07:18:19.411Z,7.98
2023-11-07T07:23:25.809Z,8.03
2023-11-07T07:28:28.101Z,8.10
2023-11-07T07:33:30.194Z,8.20
2023-11-07T07:38:32.929Z,8.37
2023-11-07T07:43:34.598Z,8.61
2023-11-07T07:48:36.725Z,8.84
2023-11-07T07:53:39.167Z,8.98
2023-11-07T07:58:42.454Z,9.14
2023-11-07T08:03:44.803Z,9.37
2023-11-07T08:08:47.058Z,9.56
2023-11-07T08:13:49.026Z,9.72
2023-11-07T08:18:50.734Z,9.80
2023-11-07T08:23:52.598Z,9.79
2023-11-07T08:28:54.237Z,9.85
2023-11-07T08:33:57.660Z,9.85
2023-11-07T08:38:59.468Z,9.87
2023-11-07T08:44:01.117Z,9.95
2023-11-07T08:49:02.962Z,10.08
2023-11-07T08:54:04.701Z,10.18
2023-11-07T08:59:08.750Z,10.22
2023-11-07T09:04:10.882Z,10.18
2023-11-07T09:09:16.564Z,10.31
2023-11-07T09:14:20.065Z,10.50
2023-11-07T09:19:21.929Z,10.68
2023-11-07T09:24:24.079Z,10.93
2023-11-07T09:29:25.839Z,11.15
2023-11-07T09:34:27.647Z,11.33
2023-11-07T09:39:29.386Z,11.46
2023-11-07T09:44:31.518Z,11.57
2023-11-07T09:49:34.059Z,11.71
2023-11-07T09:54:38.181Z,11.89
2023-11-07T09:59:45.704Z,12.00
2023-11-07T10:04:49.728Z,12.10
2023-11-07T10:09:51.501Z,12.29
2023-11-07T10:14:53.665Z,12.35
2023-11-07T10:20:12.411Z,12.44
2023-11-07T10:25:27.509Z,12.42
2023-11-07T10:30:36.786Z,12.44
2023-11-07T10:35:55.809Z,12.47
2023-11-07T10:40:57.994Z,12.61
2023-11-07T10:46:06.306Z,12.72
2023-11-07T10:51:09.910Z,12.75
2023-11-07T10:56:11.684Z,12.79
2023-11-07T11:01:14.521Z,12.83
2023-11-07T11:06:17.622Z,12.80
2023-11-07T11:11:20.523Z,12.83
2023-11-07T11:16:22.505Z,12.80
2023-11-07T11:21:39.393Z,12.79
2023-11-07T11:26:48.424Z,12.95
2023-11-07T11:31:50.135Z,13.02
2023-11-07T11:36:58.069Z,13.02
2023-11-07T11:42:01.710Z,13.01
2023-11-07T11:47:04.641Z,12.98
2023-11-07T11:52:26.762Z,12.98
2023-11-07T11:57:28.734Z,12.98
2023-11-07T12:02:38.342Z,13.04
2023-11-07T12:07:40.854Z,13.07
2023-11-07T12:12:42.914Z,13.11
2023-11-07T12:17:44.934Z,13.16
2023-11-07T12:22:47.808Z,13.25
2023-11-07T12:28:07.040Z,13.31
2023-11-07T12:33:11.005Z,13.37
2023-11-07T12:38:14.754Z,13.34
2023-11-07T12:43:16.600Z,13.28
2023-11-07T12:48:25.537Z,13.19
2023-11-07T12:53:27.611Z,13.18
2023-11-07T12:58:30.744Z,13.21
2023-11-07T13:03:33.860Z,13.19
2023-11-07T13:08:38.394Z,13.17
2023-11-07T13:13:41.015Z,13.05
2023-11-07T13:18:50.138Z,12.98
2023-11-07T13:23:52.961Z,12.96
2023-11-07T13:28:56.243Z,12.88
2023-11-07T13:33:58.223Z,12.87
2023-11-07T13:39:00.075Z,12.78
2023-11-07T13:44:03.313Z,12.79
2023-11-07T13:49:05.489Z,12.91
2023-11-07T13:54:09.454Z,13.03
2023-11-07T13:59:13.878Z,13.12
2023-11-07T14:04:15.959Z,13.17
2023-11-07T14:09:18.149Z,13.24
2023-11-07T14:14:21.201Z,13.30
2023-11-07T14:19:23.402Z,13.34
2023-11-07T14:24:27.107Z,13.35
2023-11-07T14:29:45.481Z,13.38
2023-11-07T14:34:52.530Z,13.31
2023-11-07T14:39:55.358Z,13.28
2023-11-07T14:44:57.156Z,13.27
2023-11-07T14:49:59.901Z,13.19
2023-11-07T14:55:01.895Z,13.02
2023-11-07T15:00:06.045Z,12.95
2023-11-07T15:05:10.026Z,12.99
2023-11-07T15:10:14.451Z,12.91
2023-11-07T15:15:16.623Z,12.90
2023-11-07T15:20:18.630Z,12.74
2023-11-07T15:25:20.669Z,12.70
2023-11-07T15:30:22.393Z,12.61
2023-11-07T15:35:25.431Z,12.53
2023-11-07T15:40:27.135Z,12.24
2023-11-07T15:45:32.239Z,11.90
2023-11-07T15:50:35.731Z,11.66
2023-11-07T15:55:38.488Z,11.42
2023-11-07T16:00:40.597Z,11.36
2023-11-07T16:05:42.989Z,11.25
2023-11-07T16:10:46.244Z,11.36
2023-11-07T16:15:47.860Z,11.49
2023-11-07T16:20:52.677Z,11.63
2023-11-07T16:25:54.428Z,11.72
2023-11-07T16:30:57.736Z,11.76
2023-11-07T16:35:59.436Z,11.75
2023-11-07T16:41:01.862Z,11.69
2023-11-07T16:46:03.473Z,11.62
2023-11-07T16:51:05.300Z,11.59
2023-11-07T16:56:07.841Z,11.54
2023-11-07T17:01:09.672Z,11.43
2023-11-07T17:06:11.507Z,11.21
2023-11-07T17:11:14.673Z,11.05
2023-11-07T17:16:17.250Z,10.75
2023-11-07T17:21:19.504Z,10.64
2023-11-07T17:26:21.500Z,10.51
2023-11-07T17:31:23.301Z,10.34
2023-11-07T17:36:25.034Z,10.43
2023-11-07T17:41:27.032Z,10.44
2023-11-07T17:46:29.168Z,10.34
2023-11-07T17:51:31.239Z,10.18
2023-11-07T17:56:34.129Z,10.15
2023-11-07T18:01:36.531Z,10.11
2023-11-07T18:06:41.215Z,10.05
2023-11-07T18:11:46.166Z,9.96
2023-11-07T18:16:47.870Z,9.84
2023-11-07T18:21:49.886Z,9.63
2023-11-07T18:26:52.750Z,9.53
2023-11-07T18:31:54.887Z,9.50
2023-11-07T18:37:00.655Z,9.59
2023-11-07T18:42:03.075Z,9.68
2023-11-07T18:47:04.985Z,9.83
2023-11-07T18:52:07.155Z,9.94
2023-11-07T18:57:13.860Z,10.00
2023-11-07T19:02:16.395Z,10.01
2023-11-07T19:07:18.254Z,10.05
2023-11-07T19:12:20.090Z,10.03
2023-11-07T19:17:23.488Z,10.00
2023-11-07T19:22:25.316Z,9.98
2023-11-07T19:27:27.797Z,10.00
2023-11-07T19:32:29.807Z,9.96
2023-11-07T19:37:31.507Z,9.92
2023-11-07T19:42:35.297Z,9.85
2023-11-07T19:47:37.002Z,9.83
2023-11-07T19:52:39.018Z,9.79
2023-11-07T19:57:43.660Z,9.68
2023-11-07T20:02:45.831Z,9.63
2023-11-07T20:07:55.497Z,9.63
2023-11-07T20:12:59.027Z,9.64
2023-11-07T20:18:01.042Z,9.54
2023-11-07T20:23:02.982Z,9.45
2023-11-07T20:28:04.899Z,9.45
2023-11-07T20:33:07.166Z,9.38
2023-11-07T20:38:09.150Z,9.33
2023-11-07T20:43:10.853Z,9.28
2023-11-07T20:48:12.828Z,9.24
2023-11-07T20:53:14.565Z,9.14
2023-11-07T20:58:16.545Z,9.03
2023-11-07T21:03:18.196Z,8.89
2023-11-07T21:08:20.029Z,8.82
2023-11-07T21:13:21.777Z,8.69
2023-11-07T21:18:24.694Z,8.67
2023-11-07T21:23:26.429Z,8.80
2023-11-07T21:28:28.237Z,8.85
2023-11-07T21:33:30.149Z,8.88
2023-11-07T21:38:32.765Z,8.79
2023-11-07T21:43:34.488Z,8.83
2023-11-07T21:48:36.273Z,8.85
2023-11-07T21:53:37.943Z,8.79
2023-11-07T21:58:42.944Z,8.86
2023-11-07T22:03:47.128Z,8.76
2023-11-07T22:08:48.838Z,8.69
2023-11-07T22:13:50.615Z,8.73
2023-11-07T22:18:52.823Z,8.66
2023-11-07T22:23:55.165Z,8.69
2023-11-07T22:28:58.048Z,8.59
2023-11-07T22:34:00.009Z,8.50
2023-11-07T22:39:02.042Z,8.63
2023-11-07T22:44:03.842Z,8.74
2023-11-07T22:49:05.620Z,8.71
2023-11-07T22:54:07.447Z,8.64
2023-11-07T22:59:09.084Z,8.54
2023-11-07T23:04:10.845Z,8.48
2023-11-07T23:09:12.890Z,8.43
2023-11-07T23:14:14.804Z,8.46
2023-11-07T23:19:16.726Z,8.56
2023-11-07T23:24:18.529Z,8.62
2023-11-07T23:29:21.508Z,8.63
2023-11-07T23:34:23.208Z,8.75
2023-11-07T23:39:25.572Z,8.88
2023-11-07T23:44:28.087Z,8.96
2023-11-07T23:49:29.883Z,9.00
2023-11-07T23:54:34.974Z,9.06
2023-11-07T23:59:36.901Z,9.13
